createdAt,value
2018-10-07T00:00:02.400Z,16.94
2018-10-07T00:00:42.984Z,16.91
2018-10-07T00:01:23.540Z,16.97
2018-10-07T00:02:04.261Z,16.9
2018-10-07T00:02:44.812Z,16.9
2018-10-07T00:03:25.389Z,16.91
2018-10-07T00:04:05.942Z,16.97
2018-10-07T00:04:46.533Z,16.87
2018-10-07T00:05:27.088Z,16.96
2018-10-07T00:06:07.645Z,16.94
2018-10-07T00:06:48.213Z,16.84
2018-10-07T00:07:28.778Z,16.84
2018-10-07T00:08:09.357Z,16.79
2018-10-07T00:08:49.919Z,16.86
2018-10-07T00:09:30.471Z,16.84
2018-10-07T00:10:11.059Z,16.84
2018-10-07T00:10:51.627Z,16.87
2018-10-07T00:11:32.200Z,16.84
2018-10-07T00:12:12.799Z,16.81
2018-10-07T00:12:53.350Z,16.83
2018-10-07T00:13:33.904Z,16.79
2018-10-07T00:14:14.479Z,16.78
2018-10-07T00:14:55.030Z,16.79
2018-10-07T00:15:35.584Z,16.75
2018-10-07T00:16:16.135Z,16.76
2018-10-07T00:16:56.707Z,16.79
2018-10-07T00:17:37.296Z,16.75
2018-10-07T00:18:17.869Z,16.71
2018-10-07T00:18:58.461Z,16.79
2018-10-07T00:19:39.036Z,16.79
2018-10-07T00:20:19.606Z,16.74
2018-10-07T00:21:00.181Z,16.69
2018-10-07T00:21:41.731Z,16.74
2018-10-07T00:22:22.296Z,16.74
2018-10-07T00:23:02.862Z,16.76
2018-10-07T00:23:43.416Z,16.75
2018-10-07T00:24:23.985Z,16.79
2018-10-07T00:25:04.542Z,16.69
2018-10-07T00:25:45.108Z,16.71
2018-10-07T00:26:25.673Z,16.64
2018-10-07T00:27:06.245Z,16.72
2018-10-07T00:27:46.806Z,16.74
2018-10-07T00:28:27.364Z,16.65
2018-10-07T00:29:07.921Z,16.68
2018-10-07T00:29:48.482Z,16.72
2018-10-07T00:30:29.070Z,16.75
2018-10-07T00:31:09.640Z,16.68
2018-10-07T00:31:50.248Z,16.68
2018-10-07T00:32:30.791Z,16.72
2018-10-07T00:33:11.344Z,16.68
2018-10-07T00:33:51.910Z,16.71
2018-10-07T00:34:32.455Z,16.65
2018-10-07T00:35:13.037Z,16.61
2018-10-07T00:35:53.663Z,16.66
2018-10-07T00:36:34.240Z,16.56
2018-10-07T00:37:14.802Z,16.61
2018-10-07T00:37:55.371Z,16.57
2018-10-07T00:38:35.927Z,16.58
2018-10-07T00:39:16.476Z,16.64
2018-10-07T00:39:57.042Z,16.61
2018-10-07T00:40:37.598Z,16.57
2018-10-07T00:41:18.149Z,16.61
2018-10-07T00:41:58.799Z,16.54
2018-10-07T00:42:39.367Z,16.56
2018-10-07T00:43:19.943Z,16.54
2018-10-07T00:44:00.501Z,16.56
2018-10-07T00:44:41.054Z,16.54
2018-10-07T00:45:21.632Z,16.54
2018-10-07T00:46:02.193Z,16.46
2018-10-07T00:46:42.751Z,16.6
2018-10-07T00:47:23.363Z,16.54
2018-10-07T00:48:03.954Z,16.54
2018-10-07T00:48:44.507Z,16.57
2018-10-07T00:49:25.113Z,16.53
2018-10-07T00:50:05.725Z,16.54
2018-10-07T00:50:46.287Z,16.49
2018-10-07T00:51:26.859Z,16.47
2018-10-07T00:52:07.423Z,16.49
2018-10-07T00:52:48.022Z,16.35
2018-10-07T00:53:28.586Z,16.46
2018-10-07T00:54:09.202Z,16.43
2018-10-07T00:54:49.765Z,16.49
2018-10-07T00:55:30.323Z,16.41
2018-10-07T00:56:10.896Z,16.47
2018-10-07T00:56:51.461Z,16.43
2018-10-07T00:57:32.031Z,16.39
2018-10-07T00:58:12.617Z,16.46
2018-10-07T00:58:53.182Z,16.41
2018-10-07T00:59:33.810Z,16.41
2018-10-07T01:00:14.370Z,16.41
2018-10-07T01:00:54.946Z,16.42
2018-10-07T01:01:35.501Z,16.43
2018-10-07T01:02:16.099Z,16.46
2018-10-07T01:02:56.662Z,16.39
2018-10-07T01:03:37.217Z,16.36
2018-10-07T01:04:17.809Z,16.42
2018-10-07T01:04:58.427Z,16.41
2018-10-07T01:05:39.037Z,16.41
2018-10-07T01:06:19.572Z,16.42
2018-10-07T01:07:00.145Z,16.39
2018-10-07T01:07:40.720Z,16.35
2018-10-07T01:08:21.271Z,16.33
2018-10-07T01:09:01.847Z,16.35
2018-10-07T01:09:42.421Z,16.39
2018-10-07T01:10:22.974Z,16.38
2018-10-07T01:11:03.546Z,16.36
2018-10-07T01:11:44.132Z,16.41
2018-10-07T01:12:24.719Z,16.36
2018-10-07T01:13:05.290Z,16.36
2018-10-07T01:13:45.857Z,16.35
2018-10-07T01:14:26.431Z,16.36
2018-10-07T01:15:06.985Z,16.42
2018-10-07T01:15:47.557Z,16.33
2018-10-07T01:16:28.126Z,16.36
2018-10-07T01:17:08.688Z,16.32
2018-10-07T01:17:49.245Z,16.32
2018-10-07T01:18:29.828Z,16.36
2018-10-07T01:19:10.395Z,16.35
2018-10-07T01:19:50.962Z,16.36
2018-10-07T01:20:31.544Z,16.35
2018-10-07T01:21:12.119Z,16.31
2018-10-07T01:21:52.670Z,16.26
2018-10-07T01:22:33.221Z,16.28
2018-10-07T01:23:13.791Z,16.32
2018-10-07T01:23:54.684Z,16.32
2018-10-07T01:24:35.257Z,16.21
2018-10-07T01:25:15.830Z,16.24
2018-10-07T01:25:56.392Z,16.33
2018-10-07T01:26:36.956Z,16.31
2018-10-07T01:27:17.529Z,16.33
2018-10-07T01:27:58.109Z,16.29
2018-10-07T01:28:38.679Z,16.33
2018-10-07T01:29:19.236Z,16.31
2018-10-07T01:29:59.816Z,16.21
2018-10-07T01:30:40.448Z,16.26
2018-10-07T01:31:20.979Z,16.26
2018-10-07T01:32:01.580Z,16.24
2018-10-07T01:32:42.135Z,16.26
2018-10-07T01:33:22.715Z,16.24
2018-10-07T01:34:03.291Z,16.24
2018-10-07T01:34:43.846Z,16.23
2018-10-07T01:35:24.420Z,16.2
2018-10-07T01:36:04.973Z,16.24
2018-10-07T01:36:45.520Z,16.21
2018-10-07T01:37:26.085Z,16.23
2018-10-07T01:38:06.673Z,16.26
2018-10-07T01:38:47.250Z,16.21
2018-10-07T01:39:27.825Z,16.16
2018-10-07T01:40:08.386Z,16.21
2018-10-07T01:40:48.939Z,16.2
2018-10-07T01:41:29.524Z,16.17
2018-10-07T01:42:10.106Z,16.24
2018-10-07T01:42:50.686Z,16.17
2018-10-07T01:43:31.249Z,16.2
2018-10-07T01:44:11.832Z,16.09
2018-10-07T01:44:52.400Z,16.15
2018-10-07T01:45:32.972Z,16.16
2018-10-07T01:46:13.548Z,16.12
2018-10-07T01:46:54.106Z,16.1
2018-10-07T01:47:34.654Z,16.13
2018-10-07T01:48:15.237Z,16.12
2018-10-07T01:48:55.810Z,16.16
2018-10-07T01:49:36.370Z,16.1
2018-10-07T01:50:16.943Z,16.08
2018-10-07T01:50:57.500Z,16.09
2018-10-07T01:51:38.058Z,16.13
2018-10-07T01:52:18.669Z,16.05
2018-10-07T01:52:59.238Z,16.05
2018-10-07T01:53:39.821Z,16.02
2018-10-07T01:54:20.383Z,16.04
2018-10-07T01:55:00.937Z,16.12
2018-10-07T01:55:41.479Z,16.08
2018-10-07T01:56:22.052Z,16.13
2018-10-07T01:57:02.630Z,16
2018-10-07T01:57:43.313Z,16.1
2018-10-07T01:58:23.860Z,16.1
2018-10-07T01:59:04.421Z,16
2018-10-07T01:59:44.989Z,16.02
2018-10-07T02:00:25.561Z,15.98
2018-10-07T02:01:06.149Z,15.97
2018-10-07T02:01:46.715Z,16.09
2018-10-07T02:02:27.286Z,16
2018-10-07T02:03:07.847Z,16.08
2018-10-07T02:03:48.428Z,15.98
2018-10-07T02:04:29.000Z,16
2018-10-07T02:05:09.737Z,15.97
2018-10-07T02:05:50.140Z,15.97
2018-10-07T02:06:30.719Z,16
2018-10-07T02:07:11.292Z,16.08
2018-10-07T02:07:51.865Z,16.05
2018-10-07T02:08:32.425Z,15.9
2018-10-07T02:09:12.979Z,16
2018-10-07T02:09:53.533Z,16.02
2018-10-07T02:10:34.095Z,15.97
2018-10-07T02:11:14.651Z,16.01
2018-10-07T02:11:55.207Z,15.95
2018-10-07T02:12:35.894Z,15.98
2018-10-07T02:13:16.464Z,15.9
2018-10-07T02:13:57.111Z,15.98
2018-10-07T02:14:37.639Z,15.82
2018-10-07T02:15:18.225Z,15.97
2018-10-07T02:15:58.788Z,15.97
2018-10-07T02:16:39.348Z,15.98
2018-10-07T02:17:19.921Z,15.97
2018-10-07T02:18:00.483Z,15.95
2018-10-07T02:18:41.070Z,15.98
2018-10-07T02:19:21.661Z,15.83
2018-10-07T02:20:02.246Z,15.9
2018-10-07T02:20:42.816Z,15.83
2018-10-07T02:21:23.374Z,15.9
2018-10-07T02:22:03.957Z,15.91
2018-10-07T02:22:44.513Z,15.91
2018-10-07T02:23:25.079Z,15.83
2018-10-07T02:24:05.653Z,15.9
2018-10-07T02:24:46.232Z,15.76
2018-10-07T02:25:26.808Z,15.91
2018-10-07T02:26:07.370Z,15.9
2018-10-07T02:26:47.923Z,15.76
2018-10-07T02:27:28.511Z,15.84
2018-10-07T02:28:09.117Z,15.83
2018-10-07T02:28:49.670Z,15.97
2018-10-07T02:29:30.269Z,15.88
2018-10-07T02:30:10.891Z,15.88
2018-10-07T02:30:51.479Z,15.8
2018-10-07T02:31:32.114Z,15.84
2018-10-07T02:32:12.671Z,15.84
2018-10-07T02:32:53.254Z,15.9
2018-10-07T02:33:33.805Z,15.88
2018-10-07T02:34:14.372Z,15.88
2018-10-07T02:34:54.943Z,15.83
2018-10-07T02:35:35.504Z,15.86
2018-10-07T02:36:16.051Z,15.84
2018-10-07T02:36:56.649Z,15.84
2018-10-07T02:37:37.227Z,15.84
2018-10-07T02:38:17.785Z,15.84
2018-10-07T02:38:58.367Z,15.84
2018-10-07T02:39:38.932Z,15.8
2018-10-07T02:40:19.522Z,15.76
2018-10-07T02:41:00.116Z,15.73
2018-10-07T02:41:40.676Z,15.73
2018-10-07T02:42:21.300Z,15.8
2018-10-07T02:43:01.868Z,15.88
2018-10-07T02:43:42.546Z,15.9
2018-10-07T02:44:23.632Z,15.83
2018-10-07T02:45:04.173Z,15.95
2018-10-07T02:45:44.735Z,15.91
2018-10-07T02:46:25.289Z,15.8
2018-10-07T02:47:05.891Z,15.86
2018-10-07T02:47:46.463Z,15.8
2018-10-07T02:48:27.090Z,15.84
2018-10-07T02:49:07.727Z,15.84
2018-10-07T02:49:48.305Z,15.88
2018-10-07T02:50:28.888Z,15.88
2018-10-07T02:51:09.571Z,15.88
2018-10-07T02:51:50.093Z,15.79
2018-10-07T02:52:30.652Z,15.84
2018-10-07T02:53:11.259Z,15.77
2018-10-07T02:53:51.782Z,15.79
2018-10-07T02:54:32.340Z,15.76
2018-10-07T02:55:12.911Z,15.77
2018-10-07T02:55:53.465Z,15.82
2018-10-07T02:56:34.046Z,15.77
2018-10-07T02:57:14.622Z,15.79
2018-10-07T02:57:55.197Z,15.84
2018-10-07T02:58:35.779Z,15.82
2018-10-07T02:59:16.375Z,15.79
2018-10-07T02:59:56.938Z,15.88
2018-10-07T03:00:37.507Z,15.88
2018-10-07T03:01:18.069Z,15.84
2018-10-07T03:01:58.633Z,15.86
2018-10-07T03:02:39.196Z,15.86
2018-10-07T03:03:19.786Z,15.84
2018-10-07T03:04:00.380Z,15.91
2018-10-07T03:04:41.068Z,15.77
2018-10-07T03:05:21.521Z,15.79
2018-10-07T03:06:02.098Z,15.8
2018-10-07T03:06:42.719Z,15.86
2018-10-07T03:07:23.284Z,15.79
2018-10-07T03:08:03.866Z,15.77
2018-10-07T03:08:44.501Z,15.72
2018-10-07T03:09:25.074Z,15.77
2018-10-07T03:10:05.639Z,15.8
2018-10-07T03:10:46.206Z,15.76
2018-10-07T03:11:26.760Z,15.7
2018-10-07T03:12:07.347Z,15.76
2018-10-07T03:12:47.929Z,15.7
2018-10-07T03:13:28.606Z,15.7
2018-10-07T03:14:09.138Z,15.64
2018-10-07T03:14:49.691Z,15.62
2018-10-07T03:15:30.264Z,15.72
2018-10-07T03:16:10.837Z,15.59
2018-10-07T03:16:51.435Z,15.72
2018-10-07T03:17:31.996Z,15.65
2018-10-07T03:18:12.576Z,15.67
2018-10-07T03:18:53.126Z,15.67
2018-10-07T03:19:33.761Z,15.62
2018-10-07T03:20:14.315Z,15.57
2018-10-07T03:20:54.876Z,15.64
2018-10-07T03:21:35.518Z,15.59
2018-10-07T03:22:16.076Z,15.59
2018-10-07T03:22:56.680Z,15.58
2018-10-07T03:23:37.237Z,15.64
2018-10-07T03:24:17.795Z,15.62
2018-10-07T03:24:58.369Z,15.59
2018-10-07T03:25:38.937Z,15.57
2018-10-07T03:26:19.492Z,15.54
2018-10-07T03:27:00.061Z,15.52
2018-10-07T03:27:40.625Z,15.51
2018-10-07T03:28:21.210Z,15.52
2018-10-07T03:29:01.758Z,15.57
2018-10-07T03:29:42.300Z,15.54
2018-10-07T03:30:22.865Z,15.54
2018-10-07T03:31:03.445Z,15.47
2018-10-07T03:31:44.018Z,15.46
2018-10-07T03:32:24.604Z,15.49
2018-10-07T03:33:05.172Z,15.54
2018-10-07T03:33:45.744Z,15.47
2018-10-07T03:34:26.316Z,15.51
2018-10-07T03:35:06.890Z,15.51
2018-10-07T03:35:47.460Z,15.42
2018-10-07T03:36:28.039Z,15.44
2018-10-07T03:37:08.596Z,15.44
2018-10-07T03:37:49.168Z,15.43
2018-10-07T03:38:29.740Z,15.35
2018-10-07T03:39:10.294Z,15.37
2018-10-07T03:39:50.855Z,15.39
2018-10-07T03:40:31.408Z,15.35
2018-10-07T03:41:11.979Z,15.47
2018-10-07T03:41:52.525Z,15.31
2018-10-07T03:42:33.110Z,15.33
2018-10-07T03:43:13.661Z,15.35
2018-10-07T03:43:54.233Z,15.46
2018-10-07T03:44:34.792Z,15.36
2018-10-07T03:45:15.373Z,15.36
2018-10-07T03:45:55.924Z,15.33
2018-10-07T03:46:36.466Z,15.44
2018-10-07T03:47:17.041Z,15.35
2018-10-07T03:47:57.594Z,15.43
2018-10-07T03:48:38.159Z,15.31
2018-10-07T03:49:18.741Z,15.33
2018-10-07T03:49:59.302Z,15.35
2018-10-07T03:50:39.907Z,15.33
2018-10-07T03:51:20.465Z,15.43
2018-10-07T03:52:01.031Z,15.33
2018-10-07T03:52:41.618Z,15.35
2018-10-07T03:53:22.179Z,15.36
2018-10-07T03:54:02.740Z,15.37
2018-10-07T03:54:43.279Z,15.37
2018-10-07T03:55:23.832Z,15.39
2018-10-07T03:56:04.402Z,15.36
2018-10-07T03:56:44.979Z,15.36
2018-10-07T03:57:25.535Z,15.35
2018-10-07T03:58:06.119Z,15.29
2018-10-07T03:58:46.688Z,15.36
2018-10-07T03:59:27.248Z,15.37
2018-10-07T04:00:07.850Z,15.25
2018-10-07T04:00:48.414Z,15.24
2018-10-07T04:01:28.986Z,15.28
2018-10-07T04:02:09.543Z,15.31
2018-10-07T04:02:50.125Z,15.27
2018-10-07T04:03:30.694Z,15.24
2018-10-07T04:04:11.253Z,15.24
2018-10-07T04:04:51.822Z,15.19
2018-10-07T04:05:32.404Z,15.28
2018-10-07T04:06:12.974Z,15.29
2018-10-07T04:06:53.534Z,15.29
2018-10-07T04:07:34.094Z,15.14
2018-10-07T04:08:14.693Z,15.31
2018-10-07T04:08:55.312Z,15.24
2018-10-07T04:09:35.851Z,15.27
2018-10-07T04:10:16.405Z,15.27
2018-10-07T04:10:56.959Z,15.18
2018-10-07T04:11:37.544Z,15.24
2018-10-07T04:12:18.143Z,15.19
2018-10-07T04:12:58.707Z,15.19
2018-10-07T04:13:39.284Z,15.27
2018-10-07T04:14:19.850Z,15.17
2018-10-07T04:15:00.410Z,15.24
2018-10-07T04:15:41.040Z,15.17
2018-10-07T04:16:21.587Z,15.17
2018-10-07T04:17:02.146Z,15.21
2018-10-07T04:17:42.777Z,15.14
2018-10-07T04:18:23.373Z,15.06
2018-10-07T04:19:03.950Z,15.15
2018-10-07T04:19:44.502Z,15.09
2018-10-07T04:20:25.128Z,15.14
2018-10-07T04:21:05.684Z,15.09
2018-10-07T04:21:46.245Z,15.1
2018-10-07T04:22:26.802Z,15.09
2018-10-07T04:23:07.359Z,15.18
2018-10-07T04:23:47.950Z,15.09
2018-10-07T04:24:28.543Z,15.15
2018-10-07T04:25:09.100Z,15.1
2018-10-07T04:25:49.648Z,15.09
2018-10-07T04:26:30.211Z,15.11
2018-10-07T04:27:10.779Z,15.11
2018-10-07T04:27:51.356Z,15.1
2018-10-07T04:28:31.913Z,15.07
2018-10-07T04:29:12.493Z,15.14
2018-10-07T04:29:53.046Z,15.1
2018-10-07T04:30:33.605Z,15.1
2018-10-07T04:31:14.160Z,15.14
2018-10-07T04:31:54.767Z,15.15
2018-10-07T04:32:35.460Z,15.04
2018-10-07T04:33:16.840Z,15.11
2018-10-07T04:33:57.347Z,15.14
2018-10-07T04:34:38.108Z,15.15
2018-10-07T04:35:18.676Z,15.09
2018-10-07T04:35:59.296Z,15.09
2018-10-07T04:36:39.872Z,15.1
2018-10-07T04:37:20.444Z,15.04
2018-10-07T04:38:01.539Z,15.09
2018-10-07T04:38:42.186Z,15.04
2018-10-07T04:39:22.794Z,14.97
2018-10-07T04:40:03.364Z,15
2018-10-07T04:40:44.049Z,14.99
2018-10-07T04:41:24.633Z,14.97
2018-10-07T04:42:05.197Z,14.99
2018-10-07T04:42:46.131Z,15
2018-10-07T04:43:26.722Z,14.97
2018-10-07T04:44:07.308Z,14.97
2018-10-07T04:44:47.889Z,14.92
2018-10-07T04:45:28.911Z,14.96
2018-10-07T04:46:11.054Z,15.02
2018-10-07T04:46:52.050Z,15
2018-10-07T04:47:32.674Z,14.92
2018-10-07T04:48:13.570Z,14.97
2018-10-07T04:48:54.425Z,14.97
2018-10-07T04:49:35.266Z,14.96
2018-10-07T04:50:16.183Z,14.99
2018-10-07T04:50:56.878Z,14.91
2018-10-07T04:51:38.012Z,14.91
2018-10-07T04:52:18.925Z,14.92
2018-10-07T04:53:00.170Z,15.03
2018-10-07T04:53:40.992Z,14.96
2018-10-07T04:54:21.866Z,14.92
2018-10-07T04:55:02.838Z,14.97
2018-10-07T04:55:44.387Z,14.94
2018-10-07T04:56:25.398Z,14.94
2018-10-07T04:57:06.278Z,15.02
2018-10-07T04:57:47.272Z,15
2018-10-07T04:58:28.210Z,14.97
2018-10-07T04:59:09.229Z,15.06
2018-10-07T04:59:50.015Z,14.94
2018-10-07T05:00:30.913Z,14.99
2018-10-07T05:01:11.724Z,15.03
2018-10-07T05:01:52.707Z,14.99
2018-10-07T05:02:33.609Z,15.03
2018-10-07T05:03:14.428Z,15
2018-10-07T05:03:55.632Z,15.02
2018-10-07T05:04:36.940Z,14.96
2018-10-07T05:05:18.179Z,14.94
2018-10-07T05:05:59.251Z,15
2018-10-07T05:06:39.991Z,14.97
2018-10-07T05:07:20.721Z,14.96
2018-10-07T05:08:01.697Z,14.99
2018-10-07T05:08:42.249Z,14.92
2018-10-07T05:09:22.970Z,15.03
2018-10-07T05:10:03.542Z,15.02
2018-10-07T05:10:44.191Z,15.07
2018-10-07T05:11:24.754Z,15.06
2018-10-07T05:12:05.397Z,15.04
2018-10-07T05:12:45.973Z,15.03
2018-10-07T05:13:26.473Z,15.06
2018-10-07T05:14:07.015Z,15.17
2018-10-07T05:14:47.605Z,15.09
2018-10-07T05:15:28.590Z,15.14
2018-10-07T05:16:09.412Z,15.11
2018-10-07T05:16:50.330Z,15.14
2018-10-07T05:17:30.822Z,15.09
2018-10-07T05:18:11.382Z,15.14
2018-10-07T05:18:51.957Z,15.15
2018-10-07T05:19:32.856Z,15.1
2018-10-07T05:20:13.406Z,15.09
2018-10-07T05:20:54.484Z,15.24
2018-10-07T05:21:35.635Z,15.22
2018-10-07T05:22:16.521Z,15.11
2018-10-07T05:22:57.056Z,15.18
2018-10-07T05:23:37.618Z,15.24
2018-10-07T05:24:18.551Z,15.24
2018-10-07T05:24:59.375Z,15.28
2018-10-07T05:25:40.075Z,15.11
2018-10-07T05:26:21.049Z,15.25
2018-10-07T05:27:01.872Z,15.31
2018-10-07T05:27:42.433Z,15.25
2018-10-07T05:28:23.161Z,15.1
2018-10-07T05:29:05.028Z,15.25
2018-10-07T05:29:45.842Z,15.18
2018-10-07T05:30:27.078Z,15.24
2018-10-07T05:31:07.754Z,15.25
2018-10-07T05:31:48.354Z,15.24
2018-10-07T05:32:29.161Z,15.27
2018-10-07T05:33:10.767Z,15.28
2018-10-07T05:33:51.678Z,15.22
2018-10-07T05:34:32.346Z,15.27
2018-10-07T05:35:13.028Z,15.28
2018-10-07T05:35:53.850Z,15.19
2018-10-07T05:36:34.546Z,15.24
2018-10-07T05:37:15.324Z,15.29
2018-10-07T05:37:56.005Z,15.25
2018-10-07T05:38:36.917Z,15.24
2018-10-07T05:39:17.498Z,15.29
2018-10-07T05:39:58.396Z,15.24
2018-10-07T05:40:39.458Z,15.24
2018-10-07T05:41:20.012Z,15.22
2018-10-07T05:42:00.637Z,15.24
2018-10-07T05:42:41.581Z,15.27
2018-10-07T05:43:22.250Z,15.27
2018-10-07T05:44:02.943Z,15.29
2018-10-07T05:44:43.942Z,15.24
2018-10-07T05:45:24.849Z,15.24
2018-10-07T05:46:05.448Z,15.28
2018-10-07T05:46:46.096Z,15.25
2018-10-07T05:47:26.831Z,15.22
2018-10-07T05:48:08.012Z,15.35
2018-10-07T05:48:49.919Z,15.35
2018-10-07T05:49:30.772Z,15.29
2018-10-07T05:50:11.450Z,15.29
2018-10-07T05:50:52.249Z,15.33
2018-10-07T05:51:33.043Z,15.31
2018-10-07T05:52:13.724Z,15.28
2018-10-07T05:52:54.287Z,15.29
2018-10-07T05:53:34.859Z,15.31
2018-10-07T05:54:15.504Z,15.39
2018-10-07T05:54:56.079Z,15.36
2018-10-07T05:55:36.641Z,15.4
2018-10-07T05:56:17.589Z,15.35
2018-10-07T05:56:58.605Z,15.43
2018-10-07T05:57:39.618Z,15.37
2018-10-07T05:58:20.306Z,15.37
2018-10-07T05:59:01.236Z,15.37
2018-10-07T05:59:41.949Z,15.44
2018-10-07T06:00:22.509Z,15.47
2018-10-07T06:01:03.255Z,15.47
2018-10-07T06:01:43.822Z,15.46
2018-10-07T06:02:24.401Z,15.54
2018-10-07T06:03:05.201Z,15.46
2018-10-07T06:03:45.874Z,15.49
2018-10-07T06:04:26.697Z,15.54
2018-10-07T06:05:07.301Z,15.59
2018-10-07T06:05:47.855Z,15.52
2018-10-07T06:06:28.991Z,15.61
2018-10-07T06:07:09.635Z,15.52
2018-10-07T06:07:50.243Z,15.57
2018-10-07T06:08:30.843Z,15.58
2018-10-07T06:09:11.748Z,15.59
2018-10-07T06:09:52.358Z,15.59
2018-10-07T06:10:34.070Z,15.55
2018-10-07T06:11:14.628Z,15.57
2018-10-07T06:11:55.429Z,15.55
2018-10-07T06:12:36.081Z,15.57
2018-10-07T06:13:16.836Z,15.58
2018-10-07T06:13:57.780Z,15.61
2018-10-07T06:14:38.520Z,15.59
2018-10-07T06:15:19.124Z,15.64
2018-10-07T06:15:59.703Z,15.7
2018-10-07T06:16:40.292Z,15.75
2018-10-07T06:17:20.872Z,15.67
2018-10-07T06:18:01.473Z,15.8
2018-10-07T06:18:42.018Z,15.75
2018-10-07T06:19:22.590Z,15.79
2018-10-07T06:20:03.176Z,15.83
2018-10-07T06:20:43.765Z,15.77
2018-10-07T06:21:24.360Z,15.84
2018-10-07T06:22:05.850Z,15.84
2018-10-07T06:22:46.590Z,15.84
2018-10-07T06:23:27.444Z,15.79
2018-10-07T06:24:08.125Z,15.75
2018-10-07T06:24:48.866Z,15.84
2018-10-07T06:25:29.725Z,15.8
2018-10-07T06:26:11.137Z,15.73
2018-10-07T06:26:51.818Z,15.77
2018-10-07T06:27:33.495Z,15.79
2018-10-07T06:28:14.183Z,15.77
2018-10-07T06:28:54.761Z,15.73
2018-10-07T06:29:35.308Z,15.75
2018-10-07T06:30:15.871Z,15.72
2018-10-07T06:30:56.436Z,15.7
2018-10-07T06:31:36.999Z,15.72
2018-10-07T06:32:17.607Z,15.73
2018-10-07T06:32:58.176Z,15.65
2018-10-07T06:33:38.744Z,15.64
2018-10-07T06:34:19.294Z,15.59
2018-10-07T06:34:59.845Z,15.57
2018-10-07T06:35:40.403Z,15.59
2018-10-07T06:36:20.992Z,15.57
2018-10-07T06:37:01.574Z,15.59
2018-10-07T06:37:42.200Z,15.54
2018-10-07T06:38:22.769Z,15.54
2018-10-07T06:39:03.328Z,15.54
2018-10-07T06:39:43.917Z,15.58
2018-10-07T06:40:24.479Z,15.55
2018-10-07T06:41:05.046Z,15.54
2018-10-07T06:41:45.638Z,15.47
2018-10-07T06:42:26.199Z,15.44
2018-10-07T06:43:06.758Z,15.47
2018-10-07T06:43:47.351Z,15.44
2018-10-07T06:44:27.908Z,15.51
2018-10-07T06:45:08.520Z,15.44
2018-10-07T06:45:49.127Z,15.36
2018-10-07T06:46:29.641Z,15.46
2018-10-07T06:47:10.266Z,15.39
2018-10-07T06:47:50.816Z,15.35
2018-10-07T06:48:31.403Z,15.33
2018-10-07T06:49:12.157Z,15.35
2018-10-07T06:49:52.985Z,15.36
2018-10-07T06:50:33.936Z,15.37
2018-10-07T06:51:15.700Z,15.35
2018-10-07T06:51:56.704Z,15.28
2018-10-07T06:52:38.234Z,15.33
2018-10-07T06:53:19.350Z,15.33
2018-10-07T06:54:00.372Z,15.29
2018-10-07T06:54:41.133Z,15.28
2018-10-07T06:55:21.953Z,15.27
2018-10-07T06:56:02.745Z,15.35
2018-10-07T06:56:43.342Z,15.33
2018-10-07T06:57:23.918Z,15.33
2018-10-07T06:58:04.598Z,15.27
2018-10-07T06:58:45.161Z,15.31
2018-10-07T06:59:25.780Z,15.29
2018-10-07T07:00:06.282Z,15.33
2018-10-07T07:00:46.868Z,15.29
2018-10-07T07:01:27.441Z,15.29
2018-10-07T07:02:08.241Z,15.27
2018-10-07T07:02:48.985Z,15.31
2018-10-07T07:03:29.550Z,15.27
2018-10-07T07:04:10.112Z,15.25
2018-10-07T07:04:50.704Z,15.25
2018-10-07T07:05:31.330Z,15.24
2018-10-07T07:06:11.885Z,15.24
2018-10-07T07:06:52.472Z,15.31
2018-10-07T07:07:33.062Z,15.24
2018-10-07T07:08:13.642Z,15.22
2018-10-07T07:08:54.192Z,15.17
2018-10-07T07:09:34.776Z,15.1
2018-10-07T07:10:15.333Z,15.22
2018-10-07T07:10:55.911Z,15.31
2018-10-07T07:11:36.483Z,15.29
2018-10-07T07:12:17.043Z,15.35
2018-10-07T07:12:57.693Z,15.44
2018-10-07T07:13:38.170Z,15.47
2018-10-07T07:14:18.749Z,15.59
2018-10-07T07:14:59.287Z,15.55
2018-10-07T07:15:39.843Z,15.61
2018-10-07T07:16:20.435Z,15.58
2018-10-07T07:17:01.001Z,15.67
2018-10-07T07:17:41.588Z,15.58
2018-10-07T07:18:22.174Z,15.59
2018-10-07T07:19:02.724Z,15.59
2018-10-07T07:19:43.353Z,15.61
2018-10-07T07:20:23.920Z,15.65
2018-10-07T07:21:04.426Z,15.64
2018-10-07T07:21:44.981Z,15.68
2018-10-07T07:22:25.533Z,15.7
2018-10-07T07:23:06.089Z,15.67
2018-10-07T07:23:46.680Z,15.67
2018-10-07T07:24:27.234Z,15.7
2018-10-07T07:25:07.819Z,15.8
2018-10-07T07:25:48.385Z,15.77
2018-10-07T07:26:29.031Z,15.75
2018-10-07T07:27:09.575Z,15.77
2018-10-07T07:27:50.156Z,15.76
2018-10-07T07:28:30.706Z,15.73
2018-10-07T07:29:11.270Z,15.75
2018-10-07T07:29:51.819Z,15.65
2018-10-07T07:30:32.387Z,15.62
2018-10-07T07:31:13.001Z,15.58
2018-10-07T07:31:53.495Z,15.59
2018-10-07T07:32:34.079Z,15.57
2018-10-07T07:33:14.654Z,15.54
2018-10-07T07:33:55.214Z,15.43
2018-10-07T07:34:35.775Z,15.51
2018-10-07T07:35:16.350Z,15.47
2018-10-07T07:35:56.913Z,15.43
2018-10-07T07:36:37.484Z,15.46
2018-10-07T07:37:18.063Z,15.37
2018-10-07T07:37:58.624Z,15.42
2018-10-07T07:38:39.206Z,15.35
2018-10-07T07:39:19.786Z,15.42
2018-10-07T07:40:00.349Z,15.4
2018-10-07T07:40:40.897Z,15.36
2018-10-07T07:41:21.477Z,15.33
2018-10-07T07:42:02.039Z,15.37
2018-10-07T07:42:42.597Z,15.37
2018-10-07T07:43:23.153Z,15.36
2018-10-07T07:44:03.707Z,15.36
2018-10-07T07:44:44.288Z,15.43
2018-10-07T07:45:24.844Z,15.37
2018-10-07T07:46:05.404Z,15.37
2018-10-07T07:46:45.987Z,15.35
2018-10-07T07:47:26.538Z,15.39
2018-10-07T07:48:07.107Z,15.4
2018-10-07T07:48:47.668Z,15.42
2018-10-07T07:49:28.225Z,15.37
2018-10-07T07:50:08.790Z,15.31
2018-10-07T07:50:49.356Z,15.29
2018-10-07T07:51:29.950Z,15.35
2018-10-07T07:52:10.528Z,15.29
2018-10-07T07:52:51.109Z,15.29
2018-10-07T07:53:31.671Z,15.22
2018-10-07T07:54:12.243Z,15.24
2018-10-07T07:54:52.804Z,15.22
2018-10-07T07:55:33.365Z,15.19
2018-10-07T07:56:13.924Z,15.18
2018-10-07T07:56:54.496Z,15.19
2018-10-07T07:57:35.061Z,15.11
2018-10-07T07:58:15.638Z,15.19
2018-10-07T07:58:56.202Z,15.14
2018-10-07T07:59:36.759Z,15.14
2018-10-07T08:00:17.314Z,15.11
2018-10-07T08:00:57.878Z,15.09
2018-10-07T08:01:38.466Z,15.06
2018-10-07T08:02:19.057Z,15.07
2018-10-07T08:02:59.612Z,15
2018-10-07T08:03:40.196Z,14.86
2018-10-07T08:04:20.774Z,14.85
2018-10-07T08:05:01.317Z,14.84
2018-10-07T08:05:41.894Z,14.79
2018-10-07T08:06:22.470Z,14.69
2018-10-07T08:07:03.037Z,14.7
2018-10-07T08:07:43.615Z,14.72
2018-10-07T08:08:24.165Z,14.66
2018-10-07T08:09:04.731Z,14.81
2018-10-07T08:09:45.303Z,14.79
2018-10-07T08:10:25.866Z,14.81
2018-10-07T08:11:06.456Z,14.85
2018-10-07T08:11:47.031Z,14.84
2018-10-07T08:12:27.588Z,14.78
2018-10-07T08:13:08.154Z,14.68
2018-10-07T08:13:48.708Z,14.7
2018-10-07T08:14:29.274Z,14.69
2018-10-07T08:15:09.857Z,14.7
2018-10-07T08:15:50.437Z,14.69
2018-10-07T08:16:30.975Z,14.6
2018-10-07T08:17:11.553Z,14.53
2018-10-07T08:17:52.209Z,14.55
2018-10-07T08:18:32.772Z,14.5
2018-10-07T08:19:13.260Z,14.51
2018-10-07T08:19:53.845Z,14.53
2018-10-07T08:20:34.428Z,14.51
2018-10-07T08:21:14.996Z,14.5
2018-10-07T08:21:55.548Z,14.45
2018-10-07T08:22:36.122Z,14.58
2018-10-07T08:23:16.750Z,14.51
2018-10-07T08:23:57.334Z,14.5
2018-10-07T08:24:37.877Z,14.53
2018-10-07T08:25:18.428Z,14.55
2018-10-07T08:25:58.990Z,14.47
2018-10-07T08:26:39.603Z,14.53
2018-10-07T08:27:20.197Z,14.53
2018-10-07T08:28:00.765Z,14.54
2018-10-07T08:28:41.346Z,14.5
2018-10-07T08:29:21.900Z,14.55
2018-10-07T08:30:02.463Z,14.58
2018-10-07T08:30:43.105Z,14.59
2018-10-07T08:31:23.713Z,14.48
2018-10-07T08:32:04.288Z,14.5
2018-10-07T08:32:44.919Z,14.48
2018-10-07T08:33:25.484Z,14.45
2018-10-07T08:34:06.188Z,14.47
2018-10-07T08:34:46.752Z,14.55
2018-10-07T08:35:27.609Z,14.48
2018-10-07T08:36:08.233Z,14.58
2018-10-07T08:36:48.857Z,14.47
2018-10-07T08:37:29.463Z,14.48
2018-10-07T08:38:10.748Z,14.44
2018-10-07T08:38:50.915Z,14.53
2018-10-07T08:39:31.498Z,14.51
2018-10-07T08:40:12.080Z,14.47
2018-10-07T08:40:52.712Z,14.51
2018-10-07T08:41:33.460Z,14.53
2018-10-07T08:42:14.153Z,14.55
2018-10-07T08:42:54.731Z,14.5
2018-10-07T08:43:35.445Z,14.58
2018-10-07T08:44:16.029Z,14.45
2018-10-07T08:44:56.700Z,14.48